Time;durP1;ratioP1;P1;durP2;ratioP2;P2;SDS_P1;SDS_P2;PMS_P1;PMS_P2;Temp;Humidity;BMP_temperature;BMP_pressure;BME280_temperature;BME280_humidity;BME280_pressure;Samples;Min_cycle;Max_cycle;Signal;HPM_P1;HPM_P2
2021/09/10 00:02:12;;;;;;;9.93;4.97;;;410.20;2355.20;;;;;;5014908;28;20069;-82
2021/09/10 00:04:38;;;;;;;12.38;5.65;;;410.20;2355.20;;;;;;5016378;28;20026;-83
2021/09/10 00:07:04;;;;;;;7.22;4.78;;;410.30;2355.20;;;;;;5014797;28;20030;-83
2021/09/10 00:09:30;;;;;;;8.02;4.82;;;410.30;2355.20;;;;;;5014745;28;20065;-81
2021/09/10 00:11:55;;;;;;;12.80;5.18;;;410.40;2355.20;;;;;;5015669;28;20026;-81
2021/09/10 00:14:21;;;;;;;10.30;4.78;;;410.30;2355.20;;;;;;5014823;28;20381;-80
2021/09/10 00:16:47;;;;;;;9.60;4.80;;;410.30;2355.20;;;;;;5014859;28;20033;-81
2021/09/10 00:19:13;;;;;;;10.73;4.72;;;410.40;2355.20;;;;;;5014773;28;20038;-82
2021/09/10 00:21:39;;;;;;;10.10;5.03;;;410.20;2355.20;;;;;;5014201;28;20117;-83
2021/09/10 00:24:05;;;;;;;8.20;4.60;;;410.30;2355.20;;;;;;5014885;28;20116;-83
2021/09/10 00:26:30;;;;;;;9.05;5.32;;;410.20;2355.20;;;;;;5014177;28;20029;-80
2021/09/10 00:28:56;;;;;;;10.25;5.90;;;410.00;2355.20;;;;;;5014241;28;20080;-82
2021/09/10 00:31:22;;;;;;;11.32;5.50;;;410.00;2355.20;;;;;;5014530;28;20030;-81
2021/09/10 00:33:48;;;;;;;10.63;4.97;;;410.10;2355.20;;;;;;5014073;28;20026;-80
2021/09/10 00:36:14;;;;;;;9.93;5.18;;;410.10;2355.20;;;;;;5014179;28;20033;-80
2021/09/10 00:38:40;;;;;;;7.43;4.40;;;410.30;2355.20;;;;;;5014099;28;20537;-81
2021/09/10 00:41:05;;;;;;;8.73;5.28;;;410.20;2355.20;;;;;;5013959;28;20022;-81
2021/09/10 00:43:31;;;;;;;8.73;4.45;;;410.30;2355.20;;;;;;5014421;28;20034;-82
2021/09/10 00:45:58;;;;;;;11.00;4.28;;;410.50;2355.20;;;;;;5014302;28;20065;-82
2021/09/10 00:48:25;;;;;;;8.82;4.70;;;410.50;2355.20;;;;;;5013573;28;20038;-82
2021/09/10 00:50:51;;;;;;;9.13;4.30;;;410.50;2355.20;;;;;;5013959;28;20038;-81
2021/09/10 00:53:17;;;;;;;9.02;5.13;;;410.30;2355.20;;;;;;5015215;28;20537;-83
2021/09/10 00:55:47;;;;;;;9.63;4.97;;;410.20;2355.20;;;;;;5013699;28;20041;-82
2021/09/10 00:58:14;;;;;;;8.15;4.47;;;410.20;2355.20;;;;;;5013780;28;20029;-81
2021/09/10 01:00:40;;;;;;;9.93;4.45;;;410.10;2355.20;;;;;;5013893;28;20026;-83
2021/09/10 01:03:07;;;;;;;7.97;4.07;;;410.20;2355.20;;;;;;5015023;28;20026;-82
2021/09/10 01:05:33;;;;;;;10.40;4.38;;;410.20;2355.20;;;;;;5015213;28;20026;-80
2021/09/10 01:08:00;;;;;;;8.82;4.53;;;410.40;2355.20;;;;;;5013945;28;20034;-81
2021/09/10 01:10:27;;;;;;;10.30;4.53;;;410.50;2355.20;;;;;;5013474;28;20038;-84
2021/09/10 01:12:55;;;;;;;12.02;4.35;;;435.20;2355.20;;;;;;5014013;28;20447;-83
2021/09/10 01:15:21;;;;;;;10.77;4.85;;;410.50;2355.20;;;;;;5015114;28;20042;-80
2021/09/10 01:17:47;;;;;;;8.98;4.78;;;410.20;2355.20;;;;;;5013686;28;20033;-83
2021/09/10 01:20:13;;;;;;;8.73;4.78;;;410.30;2355.20;;;;;;5014233;28;20030;-83
2021/09/10 01:22:39;;;;;;;9.05;4.65;;;410.30;2355.20;;;;;;5015190;28;20029;-82
2021/09/10 01:25:12;;;;;;;10.40;5.28;;;410.40;2355.20;;;;;;5013725;28;20416;-82
2021/09/10 01:27:48;;;;;;;8.55;4.45;;;410.50;2355.20;;;;;;5015416;28;20026;-81
2021/09/10 01:30:16;;;;;;;13.30;6.13;;;410.50;2355.20;;;;;;5013297;28;20058;-82
2021/09/10 01:32:42;;;;;;;9.30;5.05;;;410.50;2355.20;;;;;;5014462;28;20029;-81
2021/09/10 01:35:09;;;;;;;9.13;5.18;;;410.50;2355.20;;;;;;5013667;28;20466;-81
2021/09/10 01:37:36;;;;;;;9.68;4.97;;;410.40;2355.20;;;;;;5013282;28;20026;-81
2021/09/10 01:40:02;;;;;;;8.88;5.00;;;410.00;2355.20;;;;;;5013461;28;20132;-79
2021/09/10 01:42:28;;;;;;;11.23;5.50;;;409.90;2355.20;;;;;;5013434;28;20029;-82
2021/09/10 01:44:54;;;;;;;8.80;5.05;;;409.90;2355.20;;;;;;5013556;28;20030;-80
2021/09/10 01:47:20;;;;;;;10.18;4.88;;;409.90;2355.20;;;;;;5013583;28;20359;-81
2021/09/10 01:49:45;;;;;;;9.20;4.80;;;409.90;2355.20;;;;;;5013375;28;20029;-82
2021/09/10 01:52:11;;;;;;;8.27;5.10;;;409.70;2355.20;;;;;;5012913;28;20029;-82
2021/09/10 01:54:37;;;;;;;11.30;4.90;;;409.90;2355.20;;;;;;5013607;28;20037;-81
2021/09/10 01:57:03;;;;;;;10.07;4.82;;;409.70;2355.20;;;;;;5014474;28;20032;-80
2021/09/10 01:59:29;;;;;;;8.15;4.78;;;409.70;2355.20;;;;;;5013901;28;20037;-81
2021/09/10 02:01:55;;;;;;;9.82;5.45;;;409.60;2355.20;;;;;;5013218;28;20528;-81
2021/09/10 02:04:21;;;;;;;8.20;5.25;;;409.60;2355.20;;;;;;5013880;28;20519;-84
2021/09/10 02:06:47;;;;;;;8.20;4.75;;;409.60;2355.20;;;;;;5013612;28;20026;-82
2021/09/10 02:09:13;;;;;;;9.02;4.38;;;409.80;2355.20;;;;;;5014521;28;20030;-81
2021/09/10 02:11:39;;;;;;;10.00;4.20;;;409.90;2355.20;;;;;;5013441;28;20037;-80
2021/09/10 02:14:05;;;;;;;9.63;4.82;;;410.00;2355.20;;;;;;5015310;28;20014;-84
2021/09/10 02:16:31;;;;;;;10.32;4.72;;;409.80;2355.20;;;;;;5037704;28;20030;-80
2021/09/10 02:18:57;;;;;;;9.27;5.15;;;409.70;2355.20;;;;;;5034948;28;20026;-79
2021/09/10 02:21:23;;;;;;;11.82;5.22;;;409.70;2355.20;;;;;;5019532;28;20037;-83
2021/09/10 02:23:50;;;;;;;11.95;5.70;;;384.90;2329.60;;;;;;5012274;28;20061;-83
2021/09/10 02:26:15;;;;;;;10.55;5.57;;;384.80;2329.60;;;;;;5012514;28;20079;-81
2021/09/10 02:28:41;;;;;;;10.40;5.63;;;384.90;2329.60;;;;;;5012826;28;20121;-80
2021/09/10 02:31:07;;;;;;;9.98;5.30;;;409.60;2355.20;;;;;;5012671;28;20057;-82
2021/09/10 02:33:33;;;;;;;12.65;5.25;;;409.60;2355.20;;;;;;5012469;28;20026;-81
2021/09/10 02:36:00;;;;;;;13.82;6.30;;;409.60;2355.20;;;;;;5012621;28;20033;-82
2021/09/10 02:38:26;;;;;;;15.68;5.43;;;384.90;2329.60;;;;;;5012569;28;20033;-82
2021/09/10 02:40:52;;;;;;;13.05;5.50;;;409.60;2355.20;;;;;;5012306;28;20500;-82
2021/09/10 02:43:18;;;;;;;10.18;5.22;;;409.60;2355.20;;;;;;5012518;28;20070;-82
2021/09/10 02:45:44;;;;;;;10.80;5.82;;;409.60;2355.20;;;;;;5013990;28;20398;-83
2021/09/10 02:48:11;;;;;;;9.73;5.47;;;384.90;2329.60;;;;;;5011929;28;20022;-82
2021/09/10 02:50:36;;;;;;;13.95;5.80;;;384.80;2329.60;;;;;;5012378;28;20032;-81
2021/09/10 02:53:03;;;;;;;9.48;5.28;;;384.70;2329.60;;;;;;5012411;28;20026;-83
2021/09/10 02:55:32;;;;;;;10.43;5.07;;;384.70;2329.60;;;;;;5012234;28;20458;-80
2021/09/10 02:57:58;;;;;;;10.15;5.18;;;384.50;2329.60;;;;;;5012588;28;20469;-85
2021/09/10 03:00:24;;;;;;;9.70;5.05;;;384.30;2329.60;;;;;;5013291;28;20042;-84
2021/09/10 03:02:50;;;;;;;8.65;4.90;;;384.50;2329.60;;;;;;5012310;28;20070;-83
2021/09/10 03:05:16;;;;;;;8.98;5.88;;;384.60;2329.60;;;;;;5013195;28;20030;-83
2021/09/10 03:07:42;;;;;;;11.77;5.63;;;384.90;2329.60;;;;;;5011891;28;20091;-82
2021/09/10 03:10:09;;;;;;;15.18;5.40;;;409.60;2355.20;;;;;;5012270;28;20033;-81
2021/09/10 03:12:36;;;;;;;11.23;5.60;;;384.60;2329.60;;;;;;5015347;28;20026;-82
2021/09/10 03:15:04;;;;;;;12.77;5.25;;;384.50;2329.60;;;;;;5015553;28;20025;-85
2021/09/10 03:17:30;;;;;;;9.57;5.60;;;384.50;2329.60;;;;;;5015717;28;20466;-84
2021/09/10 03:19:56;;;;;;;12.85;5.30;;;384.60;2329.60;;;;;;5015524;28;20036;-85
2021/09/10 03:22:22;;;;;;;9.70;4.72;;;384.50;2329.60;;;;;;5015341;28;20076;-83
2021/09/10 03:24:48;;;;;;;12.93;5.30;;;384.60;2329.60;;;;;;5015448;28;20026;-85
2021/09/10 03:27:14;;;;;;;8.48;4.75;;;384.50;2329.60;;;;;;5015301;28;20034;-81
2021/09/10 03:29:40;;;;;;;9.77;4.93;;;384.30;2329.60;;;;;;5014873;28;20100;-83
2021/09/10 03:32:07;;;;;;;10.35;4.78;;;384.40;2329.60;;;;;;5015299;28;20037;-83
2021/09/10 03:34:33;;;;;;;8.70;5.07;;;384.70;2329.60;;;;;;5015353;28;20022;-84
2021/09/10 03:36:59;;;;;;;8.90;4.47;;;384.00;2329.60;;;;;;5014955;28;20062;-84
2021/09/10 03:39:29;;;;;;;9.20;4.57;;;384.40;2329.60;;;;;;4999303;28;20042;-82
2021/09/10 03:41:56;;;;;;;12.52;5.07;;;384.40;2329.60;;;;;;5015030;28;20022;-81
2021/09/10 03:44:21;;;;;;;8.25;4.35;;;384.30;2329.60;;;;;;5014806;28;20021;-83
2021/09/10 03:46:48;;;;;;;9.27;4.60;;;384.30;2329.60;;;;;;5015104;28;20492;-83
2021/09/10 03:49:14;;;;;;;8.30;5.47;;;384.40;2329.60;;;;;;5015054;28;20041;-82
2021/09/10 03:51:40;;;;;;;8.00;5.35;;;384.00;2329.60;;;;;;5014948;28;20054;-83
2021/09/10 03:54:05;;;;;;;9.85;5.38;;;384.10;2329.60;;;;;;5015095;28;20053;-83
2021/09/10 03:56:31;;;;;;;9.43;4.75;;;384.10;2329.60;;;;;;5014717;28;20395;-82
2021/09/10 03:58:57;;;;;;;9.80;4.97;;;384.20;2329.60;;;;;;5015054;28;20030;-83
2021/09/10 04:01:23;;;;;;;9.98;4.35;;;384.40;2329.60;;;;;;5015132;28;20120;-83
2021/09/10 04:03:49;;;;;;;8.65;5.10;;;384.50;2329.60;;;;;;5014520;28;20121;-83
2021/09/10 04:06:15;;;;;;;9.73;4.80;;;384.40;2329.60;;;;;;5014791;28;20022;-82
2021/09/10 04:08:41;;;;;;;9.35;4.88;;;384.50;2329.60;;;;;;5015136;28;20026;-83
2021/09/10 04:11:07;;;;;;;12.00;4.93;;;384.30;2329.60;;;;;;5014670;28;20450;-82
2021/09/10 04:13:33;;;;;;;10.45;4.60;;;384.10;2329.60;;;;;;5014527;28;20109;-83
2021/09/10 04:16:00;;;;;;;8.90;5.25;;;384.10;2329.60;;;;;;5014663;28;20033;-83
2021/09/10 04:18:27;;;;;;;9.15;5.57;;;384.20;2329.60;;;;;;5014200;28;20045;-83
2021/09/10 04:20:52;;;;;;;10.02;4.85;;;384.00;2329.60;;;;;;5014489;28;20029;-85
2021/09/10 04:23:18;;;;;;;8.50;5.28;;;384.10;2329.60;;;;;;5014021;28;20026;-83
2021/09/10 04:25:44;;;;;;;11.65;5.47;;;384.10;2329.60;;;;;;5014310;28;20026;-83
2021/09/10 04:28:12;;;;;;;9.80;5.10;;;384.30;2329.60;;;;;;5014641;28;20025;-83
2021/09/10 04:30:38;;;;;;;12.57;6.00;;;384.30;2329.60;;;;;;5013894;28;20145;-83
2021/09/10 04:33:04;;;;;;;10.35;5.57;;;384.30;2329.60;;;;;;5013923;28;20437;-82
2021/09/10 04:35:33;;;;;;;10.98;5.50;;;384.40;2329.60;;;;;;5014234;28;20034;-82
2021/09/10 04:38:16;;;;;;;8.70;4.88;;;384.10;2329.60;;;;;;5015098;28;20030;-84
2021/09/10 04:40:48;;;;;;;7.18;4.55;;;384.10;2329.60;;;;;;5013921;28;20033;-83
2021/09/10 04:43:13;;;;;;;11.57;5.60;;;384.10;2329.60;;;;;;5013952;28;20108;-84
2021/09/10 04:45:39;;;;;;;7.80;5.15;;;384.20;2329.60;;;;;;5013572;28;20104;-83
2021/09/10 04:48:05;;;;;;;8.52;5.00;;;384.30;2329.60;;;;;;5013739;28;20033;-83
2021/09/10 04:50:31;;;;;;;9.55;5.43;;;384.30;2329.60;;;;;;5013882;28;20034;-82
2021/09/10 04:52:57;;;;;;;14.73;6.18;;;384.30;2329.60;;;;;;5013656;28;20084;-84
2021/09/10 04:55:25;;;;;;;11.55;5.55;;;384.30;2329.60;;;;;;5013918;28;20433;-84
2021/09/10 04:57:54;;;;;;;10.48;5.22;;;384.20;2329.60;;;;;;5013638;28;20146;-85
2021/09/10 05:00:20;;;;;;;12.00;5.00;;;384.20;2329.60;;;;;;5013318;28;20033;-82
2021/09/10 05:02:46;;;;;;;9.43;4.90;;;384.30;2329.60;;;;;;5013653;28;20028;-84
2021/09/10 05:05:12;;;;;;;18.63;5.85;;;384.20;2329.60;;;;;;5013818;28;20095;-82
2021/09/10 05:07:38;;;;;;;13.05;5.60;;;384.30;2329.60;;;;;;5013546;28;20525;-80
2021/09/10 05:10:05;;;;;;;12.98;5.60;;;384.30;2329.60;;;;;;5013608;28;20466;-81
2021/09/10 05:12:30;;;;;;;16.10;5.40;;;384.40;2329.60;;;;;;5013618;28;20111;-82
2021/09/10 05:14:56;;;;;;;12.20;4.60;;;384.50;2329.60;;;;;;5012937;28;20093;-82
2021/09/10 05:17:22;;;;;;;10.50;4.88;;;384.60;2329.60;;;;;;5013311;28;20030;-82
2021/09/10 05:19:48;;;;;;;9.85;6.18;;;384.60;2329.60;;;;;;5013098;28;20128;-83
2021/09/10 05:22:15;;;;;;;10.60;5.25;;;384.60;2329.60;;;;;;5013352;28;20022;-83
2021/09/10 05:24:41;;;;;;;9.07;4.57;;;384.60;2329.60;;;;;;5013189;28;20088;-80
2021/09/10 05:27:10;;;;;;;12.60;5.50;;;384.60;2329.60;;;;;;5014470;28;20029;-82
2021/09/10 05:29:36;;;;;;;10.48;5.07;;;384.50;2329.60;;;;;;5012687;28;20053;-82
2021/09/10 05:32:05;;;;;;;18.17;5.55;;;384.40;2329.60;;;;;;5013146;28;20029;-84
2021/09/10 05:34:31;;;;;;;11.15;5.40;;;384.40;2329.60;;;;;;5012315;28;20026;-85
2021/09/10 05:36:57;;;;;;;10.68;5.10;;;384.50;2329.60;;;;;;5012603;28;20072;-82
2021/09/10 05:39:23;;;;;;;17.42;4.85;;;384.60;2329.60;;;;;;5012974;28;20030;-83
2021/09/10 05:41:49;;;;;;;12.13;4.65;;;384.40;2329.60;;;;;;5014385;28;20026;-85
2021/09/10 05:44:15;;;;;;;11.10;5.28;;;384.50;2329.60;;;;;;5012973;28;20022;-83
2021/09/10 05:46:41;;;;;;;11.15;4.65;;;384.50;2329.60;;;;;;5013104;28;20036;-82
2021/09/10 05:49:07;;;;;;;10.35;5.13;;;384.40;2329.60;;;;;;5012682;28;20026;-83
2021/09/10 05:51:33;;;;;;;9.20;5.03;;;384.40;2329.60;;;;;;5013061;28;20109;-82
2021/09/10 05:53:59;;;;;;;10.85;4.97;;;384.30;2329.60;;;;;;5013022;28;20497;-81
2021/09/10 05:56:25;;;;;;;8.45;4.93;;;384.40;2329.60;;;;;;5012546;28;20026;-86
2021/09/10 05:58:50;;;;;;;10.18;5.47;;;384.50;2329.60;;;;;;5012660;28;20116;-83
2021/09/10 06:01:16;;;;;;;13.93;5.97;;;384.70;2329.60;;;;;;5012829;28;20022;-82
2021/09/10 06:03:44;;;;;;;10.05;4.72;;;384.80;2329.60;;;;;;5013521;28;20026;-80
2021/09/10 06:06:27;;;;;;;12.75;5.47;;;384.90;2329.60;;;;;;5012671;28;20026;-85
2021/09/10 06:08:53;;;;;;;13.40;5.18;;;384.90;2329.60;;;;;;5012703;28;20446;-82
2021/09/10 06:11:19;;;;;;;7.60;5.15;;;384.90;2329.60;;;;;;5012440;28;20033;-83
2021/09/10 06:13:45;;;;;;;7.93;4.75;;;409.70;2355.20;;;;;;5012789;28;20487;-84
2021/09/10 06:16:11;;;;;;;7.20;4.68;;;409.90;2355.20;;;;;;5012616;28;20026;-86
2021/09/10 06:18:37;;;;;;;8.77;4.10;;;410.10;2355.20;;;;;;5011981;28;20122;-83
2021/09/10 06:21:03;;;;;;;10.95;5.50;;;410.20;2355.20;;;;;;5012694;28;20030;-82
2021/09/10 06:23:29;;;;;;;7.75;5.00;;;410.30;2355.20;;;;;;5012865;28;20026;-84
2021/09/10 06:25:55;;;;;;;10.18;5.50;;;435.20;2355.20;;;;;;5012853;28;20112;-83
2021/09/10 06:28:21;;;;;;;8.25;5.00;;;435.30;2355.20;;;;;;5012844;28;20058;-77
2021/09/10 06:30:47;;;;;;;9.68;5.93;;;435.40;2355.20;;;;;;5012446;28;20081;-81
2021/09/10 06:33:13;;;;;;;12.95;6.53;;;435.60;2355.20;;;;;;5012565;28;20033;-82
2021/09/10 06:35:39;;;;;;;11.05;5.75;;;435.60;2355.20;;;;;;5012505;28;20121;-79
2021/09/10 06:38:04;;;;;;;12.90;5.57;;;435.60;2355.20;;;;;;5012333;28;20109;-82
2021/09/10 06:40:31;;;;;;;8.15;5.75;;;435.90;2355.20;;;;;;5012570;28;20045;-84
2021/09/10 06:42:57;;;;;;;8.65;5.32;;;435.80;2355.20;;;;;;5014015;28;20026;-82
2021/09/10 06:45:23;;;;;;;13.90;5.30;;;436.00;2355.20;;;;;;5012353;28;20029;-79
2021/09/10 06:47:49;;;;;;;8.68;5.10;;;460.80;2380.80;;;;;;5015459;28;20096;-79
2021/09/10 06:50:14;;;;;;;10.93;4.63;;;461.00;2380.80;;;;;;5016456;28;20030;-82
2021/09/10 06:52:42;;;;;;;10.63;4.45;;;461.10;2380.80;;;;;;5016894;28;20026;-80
2021/09/10 06:55:09;;;;;;;11.07;4.93;;;461.10;2380.80;;;;;;5016409;28;20087;-80
2021/09/10 06:57:35;;;;;;;11.43;4.82;;;461.10;2380.80;;;;;;5017392;28;20466;-80
2021/09/10 07:00:03;;;;;;;8.30;4.72;;;461.10;2380.80;;;;;;5015795;28;20485;-80
2021/09/10 07:02:29;;;;;;;9.23;5.53;;;461.10;2380.80;;;;;;5015985;28;20033;-80
2021/09/10 07:04:55;;;;;;;11.40;5.90;;;461.10;2380.80;;;;;;5015980;28;20030;-80
2021/09/10 07:07:20;;;;;;;10.27;5.43;;;461.10;2380.80;;;;;;5016984;28;20093;-80
2021/09/10 07:09:46;;;;;;;9.68;5.03;;;461.20;2380.80;;;;;;5016060;28;20401;-81
2021/09/10 07:12:12;;;;;;;11.38;5.10;;;461.20;2380.80;;;;;;5015664;28;20040;-80
2021/09/10 07:14:38;;;;;;;8.27;5.70;;;461.20;2380.80;;;;;;5015694;28;20124;-82
2021/09/10 07:17:04;;;;;;;14.75;5.43;;;461.30;2380.80;;;;;;5015715;28;20026;-81
2021/09/10 07:19:30;;;;;;;147.13;92.45;;;461.40;2380.80;;;;;;5015278;28;20030;-77
2021/09/10 07:21:55;;;;;;;137.55;86.97;;;461.50;2380.80;;;;;;5015749;28;20115;-79
2021/09/10 07:24:21;;;;;;;29.75;20.40;;;461.50;2380.80;;;;;;5015516;28;20561;-79
2021/09/10 07:26:52;;;;;;;24.60;14.35;;;461.60;2380.80;;;;;;5015458;28;20034;-80
2021/09/10 07:29:20;;;;;;;15.60;9.30;;;461.70;2380.80;;;;;;5015330;28;20093;-82
2021/09/10 07:31:47;;;;;;;6.95;4.05;;;486.40;2380.80;;;;;;5015333;28;20028;-79
2021/09/10 07:34:13;;;;;;;9.10;4.32;;;486.50;2380.80;;;;;;5015062;28;20026;-78
2021/09/10 07:36:39;;;;;;;4.85;3.60;;;486.70;2380.80;;;;;;5019449;28;20025;-79
2021/09/10 07:39:05;;;;;;;7.25;3.83;;;486.70;2380.80;;;;;;5019219;28;20038;-79
2021/09/10 07:41:31;;;;;;;7.80;3.45;;;486.80;2380.80;;;;;;5018865;28;20470;-80
2021/09/10 07:43:57;;;;;;;5.68;3.33;;;487.00;2380.80;;;;;;5019985;28;20030;-79
2021/09/10 07:46:23;;;;;;;8.80;3.95;;;487.10;2380.80;;;;;;5020386;28;20088;-76
2021/09/10 07:48:49;;;;;;;6.90;3.80;;;487.10;2380.80;;;;;;5020415;28;20450;-77
2021/09/10 07:51:15;;;;;;;10.27;6.03;;;487.10;2380.80;;;;;;5019023;28;20029;-78
2021/09/10 07:53:41;;;;;;;11.43;7.13;;;487.20;2380.80;;;;;;5018692;28;20069;-77
2021/09/10 07:56:06;;;;;;;8.68;4.75;;;487.30;2380.80;;;;;;5015757;28;20030;-78
2021/09/10 07:58:32;;;;;;;10.85;5.03;;;487.30;2380.80;;;;;;5013337;28;20076;-78
2021/09/10 08:00:58;;;;;;;7.15;3.45;;;512.10;2380.80;;;;;;5015076;28;20363;-80
2021/09/10 08:03:27;;;;;;;7.88;4.82;;;512.20;2380.80;;;;;;5014460;28;20485;-78
2021/09/10 08:05:53;;;;;;;8.25;4.25;;;512.30;2380.80;;;;;;5015701;28;20455;-78
2021/09/10 08:08:19;;;;;;;6.43;3.88;;;512.50;2380.80;;;;;;5014867;28;20117;-79
2021/09/10 08:10:44;;;;;;;6.68;4.03;;;512.60;2380.80;;;;;;5015651;28;20524;-79
2021/09/10 08:13:11;;;;;;;6.55;4.03;;;512.80;2380.80;;;;;;5015919;28;20397;-81
2021/09/10 08:15:37;;;;;;;6.15;3.95;;;512.80;2380.80;;;;;;5014757;28;20030;-79
2021/09/10 08:18:03;;;;;;;7.78;4.22;;;512.90;2380.80;;;;;;5014837;28;20390;-78
2021/09/10 08:20:28;;;;;;;8.48;4.28;;;537.60;2406.40;;;;;;5014553;28;20079;-78
2021/09/10 08:22:54;;;;;;;6.93;4.30;;;537.80;2406.40;;;;;;5014845;28;20038;-78
2021/09/10 08:25:20;;;;;;;6.57;3.65;;;537.90;2406.40;;;;;;5014452;28;20025;-78
2021/09/10 08:27:46;;;;;;;7.93;4.32;;;538.00;2406.40;;;;;;5015078;28;20026;-78
2021/09/10 08:30:12;;;;;;;7.65;3.72;;;538.00;2406.40;;;;;;5013689;28;20053;-78
2021/09/10 08:32:38;;;;;;;9.65;4.78;;;538.20;2406.40;;;;;;5014434;28;20057;-78
2021/09/10 08:35:04;;;;;;;8.32;4.60;;;538.20;2406.40;;;;;;5015415;28;20026;-77
2021/09/10 08:37:31;;;;;;;9.25;3.90;;;538.50;2406.40;;;;;;5013944;28;20037;-78
2021/09/10 08:39:57;;;;;;;10.27;3.47;;;538.40;2406.40;;;;;;5014125;28;20041;-79
2021/09/10 08:42:24;;;;;;;8.77;3.63;;;538.50;2406.40;;;;;;5013987;28;20026;-78
2021/09/10 08:44:50;;;;;;;8.32;4.38;;;538.50;2406.40;;;;;;5014278;28;20036;-78
2021/09/10 08:47:16;;;;;;;8.90;5.15;;;563.30;2432.00;;;;;;5013934;28;20450;-78
2021/09/10 08:49:45;;;;;;;9.95;4.38;;;563.40;2432.00;;;;;;5015689;28;20470;-76
2021/09/10 08:52:11;;;;;;;8.48;4.90;;;563.60;2432.00;;;;;;5014356;28;20029;-76
2021/09/10 08:54:36;;;;;;;10.32;3.97;;;563.70;2432.00;;;;;;5013799;28;20030;-76
2021/09/10 08:57:03;;;;;;;9.77;4.03;;;563.70;2432.00;;;;;;5015007;28;20101;-77
2021/09/10 08:59:29;;;;;;;9.35;5.00;;;563.90;2432.00;;;;;;5013870;28;20390;-77
2021/09/10 09:01:57;;;;;;;5.97;3.40;;;564.10;2432.00;;;;;;5015117;28;20030;-79
2021/09/10 09:04:28;;;;;;;8.55;5.72;;;588.80;2355.20;;;;;;5013825;28;20121;-77
2021/09/10 09:06:56;;;;;;;9.40;3.80;;;589.00;2355.20;;;;;;5013971;28;20367;-79
2021/09/10 09:09:41;;;;;;;4.15;2.67;;;589.00;2278.40;;;;;;5013466;28;20040;-78
2021/09/10 09:12:22;;;;;;;8.18;3.08;;;589.20;2227.20;;;;;;5013650;28;20068;-79
2021/09/10 09:14:48;;;;;;;9.57;4.00;;;589.30;2201.60;;;;;;5013824;28;20028;-77
2021/09/10 09:17:35;;;;;;;9.32;4.22;;;589.50;2252.80;;;;;;5013161;28;20025;-76
2021/09/10 09:20:18;;;;;;;6.53;3.25;;;589.60;2227.20;;;;;;5013754;28;20445;-77
2021/09/10 09:23:11;;;;;;;9.45;3.40;;;589.70;2150.40;;;;;;5011841;28;20462;-77
2021/09/10 09:25:44;;;;;;;8.40;2.92;;;589.70;2176.00;;;;;;5014325;28;20029;-77
2021/09/10 09:28:31;;;;;;;5.72;2.88;;;589.60;2176.00;;;;;;5012865;28;20073;-76
2021/09/10 09:30:58;;;;;;;5.85;2.47;;;589.70;2124.80;;;;;;5014500;28;20084;-76
2021/09/10 09:33:25;;;;;;;6.75;2.90;;;589.70;2150.40;;;;;;5013331;28;20034;-78
2021/09/10 09:35:55;;;;;;;6.03;2.20;;;614.50;2099.20;;;;;;5014492;28;20022;-76
2021/09/10 09:38:25;;;;;;;6.18;3.42;;;614.70;2099.20;;;;;;5012719;28;20041;-75
2021/09/10 09:40:58;;;;;;;6.38;3.42;;;614.70;2073.60;;;;;;5014245;28;20022;-76
2021/09/10 09:43:33;;;;;;;6.45;3.38;;;614.80;2073.60;;;;;;5013721;28;20033;-76
2021/09/10 09:46:00;;;;;;;14.18;4.10;;;614.90;2099.20;;;;;;5013260;28;20358;-76
2021/09/10 09:48:29;;;;;;;14.65;3.42;;;615.10;2048.00;;;;;;5014157;28;20385;-77
2021/09/10 09:50:57;;;;;;;9.98;2.97;;;615.20;2048.00;;;;;;5012931;28;20030;-76
2021/09/10 09:53:23;;;;;;;7.70;2.80;;;640.00;2022.40;;;;;;5013060;28;20077;-76
2021/09/10 09:55:50;;;;;;;5.32;3.08;;;615.20;2022.40;;;;;;5014632;28;20033;-77
2021/09/10 09:58:16;;;;;;;8.95;3.03;;;615.30;2022.40;;;;;;5012837;28;20029;-78
2021/09/10 10:00:44;;;;;;;8.07;3.83;;;640.10;1945.60;;;;;;5013131;28;20042;-76
2021/09/10 10:03:10;;;;;;;8.13;2.83;;;640.20;1971.20;;;;;;5014278;28;20351;-76
2021/09/10 10:06:06;;;;;;;8.77;2.70;;;640.50;1920.00;;;;;;5012591;28;20026;-76
2021/09/10 10:09:02;;;;;;;11.75;3.50;;;640.90;1868.80;;;;;;5013125;28;20065;-77
2021/09/10 10:11:44;;;;;;;8.88;3.65;;;665.80;1868.80;;;;;;5012296;28;20076;-77
2021/09/10 10:14:14;;;;;;;8.35;2.83;;;665.90;1894.40;;;;;;5012843;28;20377;-79
2021/09/10 10:16:42;;;;;;;10.52;3.53;;;665.90;1868.80;;;;;;5012903;28;20099;-77
2021/09/10 10:19:34;;;;;;;8.95;3.22;;;665.90;1868.80;;;;;;5012419;28;20084;-78
2021/09/10 10:22:11;;;;;;;9.40;4.80;;;666.20;1817.60;;;;;;5014660;28;20037;-77
2021/09/10 10:24:43;;;;;;;8.30;3.22;;;666.30;1817.60;;;;;;5016886;28;20113;-77
2021/09/10 10:27:40;;;;;;;6.32;2.50;;;666.30;1766.40;;;;;;5016677;28;20523;-76
2021/09/10 10:30:08;;;;;;;8.52;3.10;;;691.20;1766.40;;;;;;5017619;28;20054;-76
2021/09/10 10:32:34;;;;;;;8.45;4.57;;;;;;;;;;5016282;28;20032;-76
2021/09/10 10:35:17;;;;;;;8.05;4.57;;;691.70;1689.60;;;;;;5016559;28;20021;-76
2021/09/10 10:37:45;;;;;;;7.80;3.15;;;;;;;;;;5017631;28;20079;-77
2021/09/10 10:40:48;;;;;;;11.00;4.00;;;692.10;1638.40;;;;;;5017271;28;20073;-76
2021/09/10 10:43:22;;;;;;;8.23;4.47;;;717.00;1689.60;;;;;;5015760;28;20062;-77
2021/09/10 10:45:48;;;;;;;5.93;2.92;;;717.10;1638.40;;;;;;5017232;28;20022;-77
2021/09/10 10:48:29;;;;;;;11.30;3.15;;;717.20;1638.40;;;;;;5015864;28;20022;-75
2021/09/10 10:51:14;;;;;;;9.07;2.40;;;717.00;1587.20;;;;;;5017505;28;20026;-76
2021/09/10 10:53:46;;;;;;;7.90;2.45;;;716.90;1587.20;;;;;;5015798;28;20026;-76
2021/09/10 10:56:33;;;;;;;;;;;692.10;1587.20;;;;;;5017986;28;20068;-76
2021/09/10 10:59:14;;;;;;;8.45;2.90;;;;;;;;;;5017132;28;19913;-76
2021/09/10 11:02:14;;;;;;;9.48;5.38;;;717.60;1561.60;;;;;;5015900;28;20033;-76
2021/09/10 11:04:45;;;;;;;14.65;5.38;;;742.60;1561.60;;;;;;5017316;28;20148;-76
2021/09/10 11:07:12;;;;;;;12.63;4.93;;;743.00;1561.60;;;;;;5015475;28;20026;-76
2021/09/10 11:09:38;;;;;;;10.52;3.30;;;743.30;1536.00;;;;;;5015846;28;20091;-76
2021/09/10 11:12:04;;;;;;;11.45;3.17;;;743.30;1510.40;;;;;;5015767;28;20029;-77
2021/09/10 11:14:31;;;;;;;6.70;3.15;;;768.00;1536.00;;;;;;5015876;28;20025;-77
2021/09/10 11:17:10;;;;;;;6.95;2.70;;;768.30;1510.40;;;;;;5015876;28;20029;-75
2021/09/10 11:19:36;;;;;;;6.13;2.58;;;768.10;1510.40;;;;;;5017166;28;20120;-77
2021/09/10 11:22:02;;;;;;;5.82;2.22;;;768.30;1484.80;;;;;;5015651;28;20025;-76
2021/09/10 11:24:31;;;;;;;5.45;2.30;;;768.40;1459.20;;;;;;5016792;28;20026;-76
2021/09/10 11:26:57;;;;;;;4.70;2.30;;;768.50;1459.20;;;;;;5015983;28;20112;-76
2021/09/10 11:29:23;;;;;;;6.57;2.65;;;768.00;1459.20;;;;;;5015157;28;20078;-77
2021/09/10 11:31:49;;;;;;;6.72;3.40;;;768.40;1459.20;;;;;;5015786;28;20026;-76
2021/09/10 11:34:36;;;;;;;9.50;3.35;;;768.60;1433.60;;;;;;5015710;28;20037;-76
2021/09/10 11:37:03;;;;;;;9.48;4.38;;;793.60;1433.60;;;;;;5015278;28;20030;-76
2021/09/10 11:39:29;;;;;;;7.15;2.50;;;793.80;1433.60;;;;;;5015368;28;20034;-75
2021/09/10 11:41:56;;;;;;;6.60;4.10;;;794.00;1433.60;;;;;;5015394;28;20030;-76
2021/09/10 11:44:21;;;;;;;8.30;2.75;;;793.90;1433.60;;;;;;5014984;28;20140;-75
2021/09/10 11:46:47;;;;;;;10.00;3.53;;;793.80;1433.60;;;;;;5015148;28;20053;-77
2021/09/10 11:49:13;;;;;;;8.43;2.80;;;794.00;1433.60;;;;;;5014871;28;20040;-76
2021/09/10 11:51:48;;;;;;;7.53;3.65;;;794.30;1433.60;;;;;;5015090;28;20030;-75
2021/09/10 11:54:17;;;;;;;5.72;2.53;;;794.40;1408.00;;;;;;5014978;28;20030;-76
2021/09/10 11:56:45;;;;;;;5.60;2.28;;;794.10;1382.40;;;;;;5014928;28;20029;-76
2021/09/10 11:59:25;;;;;;;7.95;2.65;;;794.30;1382.40;;;;;;5015155;28;20481;-77
2021/09/10 12:01:52;;;;;;;7.65;3.03;;;794.20;1356.80;;;;;;5016534;28;20029;-75
2021/09/10 12:04:29;;;;;;;7.45;2.67;;;794.00;1356.80;;;;;;5015441;28;20018;-76
2021/09/10 12:06:58;;;;;;;7.80;2.70;;;794.20;1382.40;;;;;;5016630;28;20113;-75
2021/09/10 12:09:23;;;;;;;9.95;4.15;;;794.00;1356.80;;;;;;5014970;28;20038;-75
2021/09/10 12:12:12;;;;;;;9.68;4.15;;;819.20;1331.20;;;;;;5014611;28;20425;-75
2021/09/10 12:14:53;;;;;;;10.32;2.65;;;819.60;1331.20;;;;;;5016289;28;20088;-75
2021/09/10 12:17:22;;;;;;;10.13;4.03;;;819.40;1331.20;;;;;;5014601;28;20608;-76
2021/09/10 12:19:54;;;;;;;7.75;3.33;;;819.80;1331.20;;;;;;5016057;28;20037;-75
2021/09/10 12:22:50;;;;;;;7.40;2.83;;;820.00;1331.20;;;;;;5016085;28;20026;-76